Time;durP1;ratioP1;P1;durP2;ratioP2;P2;SDS_P1;SDS_P2;PMS_P1;PMS_P2;Temp;Humidity;BMP_temperature;BMP_pressure;BME280_temperature;BME280_humidity;BME280_pressure;Samples;Min_cycle;Max_cycle;Signal;HPM_P1;HPM_P2
2021/01/17 00:01:03;;;;;;;7.03;4.30;;;;;;;-4.86;100.00;95934.00;5112867;28;20456;-81
2021/01/17 00:03:30;;;;;;;4.93;3.70;;;;;;;-4.74;100.00;95938.56;5112930;28;20448;-82
2021/01/17 00:05:57;;;;;;;4.10;3.50;;;;;;;-5.19;100.00;95932.13;5113019;28;20498;-82
2021/01/17 00:08:24;;;;;;;5.30;3.53;;;;;;;-5.30;100.00;95932.63;5112765;28;20445;-81
2021/01/17 00:10:51;;;;;;;3.60;3.27;;;;;;;-5.38;100.00;95931.31;5112578;28;20441;-81
2021/01/17 00:13:18;;;;;;;5.50;3.63;;;;;;;-5.42;100.00;95925.50;5112606;28;20438;-81
2021/01/17 00:15:45;;;;;;;7.00;4.13;;;;;;;-5.33;100.00;95937.06;5112606;28;20476;-81
2021/01/17 00:18:12;;;;;;;6.10;4.10;;;;;;;-5.22;100.00;95937.41;5112213;28;20480;-81
2021/01/17 00:20:39;;;;;;;5.60;4.17;;;;;;;-5.33;100.00;95948.16;5112647;28;20438;-81
2021/01/17 00:23:07;;;;;;;7.27;3.90;;;;;;;-4.98;100.00;95950.81;5112680;28;20441;-81
2021/01/17 00:25:34;;;;;;;6.23;4.13;;;;;;;-5.23;100.00;95950.25;5112560;28;20440;-81
2021/01/17 00:28:02;;;;;;;4.60;3.80;;;;;;;-4.97;100.00;95949.88;5111048;28;20531;-81
2021/01/17 00:30:31;;;;;;;7.73;4.47;;;;;;;-4.81;100.00;95955.97;5112804;28;21010;-81
2021/01/17 00:32:59;;;;;;;5.00;3.57;;;;;;;-4.68;100.00;95969.00;5112236;28;20442;-82
2021/01/17 00:35:28;;;;;;;6.00;3.77;;;;;;;-4.96;100.00;95974.59;5112304;28;20469;-82
2021/01/17 00:37:56;;;;;;;4.83;3.97;;;;;;;-5.07;100.00;95985.34;5112152;28;20429;-82
2021/01/17 00:40:25;;;;;;;7.43;4.27;;;;;;;-4.82;100.00;95986.78;5112280;28;20475;-81
2021/01/17 00:42:53;;;;;;;7.87;4.10;;;;;;;-5.23;100.00;95994.66;5112134;28;20530;-81
2021/01/17 00:45:21;;;;;;;6.20;4.57;;;;;;;-5.25;100.00;95996.47;5112165;28;20438;-81
2021/01/17 00:47:49;;;;;;;8.03;4.67;;;;;;;-5.08;100.00;96009.34;5112081;28;20441;-81
2021/01/17 00:50:17;;;;;;;7.80;4.83;;;;;;;-4.87;100.00;96009.25;5112571;28;20448;-81
2021/01/17 00:52:44;;;;;;;8.93;5.43;;;;;;;-4.87;100.00;96004.94;5112065;28;20481;-81
2021/01/17 00:55:12;;;;;;;9.93;5.00;;;;;;;-5.08;100.00;96013.63;5112099;28;20488;-82
2021/01/17 00:57:40;;;;;;;5.37;4.73;;;;;;;-4.86;100.00;96021.16;5112118;28;20528;-81
2021/01/17 01:00:09;;;;;;;4.17;3.67;;;;;;;-4.82;100.00;96018.38;5112363;28;20473;-82
2021/01/17 01:02:35;;;;;;;7.07;4.90;;;;;;;-5.21;100.00;96022.78;5111928;28;20467;-82
2021/01/17 01:05:02;;;;;;;7.77;4.63;;;;;;;-4.69;100.00;96028.91;5112380;28;20946;-82
2021/01/17 01:07:29;;;;;;;7.27;4.63;;;;;;;-4.94;100.00;96023.25;5111960;28;20501;-81
2021/01/17 01:09:57;;;;;;;6.47;4.17;;;;;;;-4.94;100.00;96029.22;5112027;28;20445;-81
2021/01/17 01:12:24;;;;;;;4.30;3.47;;;;;;;-5.05;100.00;96023.75;5112179;28;20833;-82
2021/01/17 01:14:51;;;;;;;5.00;3.83;;;;;;;-4.92;100.00;96026.56;5111964;28;20475;-82
2021/01/17 01:17:18;;;;;;;5.07;3.77;;;;;;;-4.77;100.00;96028.44;5111842;28;21032;-82
2021/01/17 01:19:45;;;;;;;7.20;4.20;;;;;;;-4.98;100.00;96026.88;5111755;28;20445;-82
2021/01/17 01:22:12;;;;;;;8.70;4.70;;;;;;;-5.04;100.00;96031.34;5111795;28;20506;-81
2021/01/17 01:24:39;;;;;;;7.00;5.03;;;;;;;-4.78;100.00;96025.03;5112212;28;20444;-82
2021/01/17 01:27:06;;;;;;;5.90;3.97;;;;;;;-4.67;100.00;96024.53;5111885;28;20445;-81
2021/01/17 01:29:33;;;;;;;6.10;4.77;;;;;;;-4.61;100.00;96023.41;5112168;28;20473;-81
2021/01/17 01:32:01;;;;;;;6.80;4.90;;;;;;;-4.56;100.00;96022.28;5111746;28;20502;-81
2021/01/17 01:34:27;;;;;;;7.67;5.83;;;;;;;-5.03;100.00;96020.19;5111653;28;20564;-81
2021/01/17 01:36:54;;;;;;;8.97;6.27;;;;;;;-5.04;100.00;96025.41;5111695;28;20592;-81
2021/01/17 01:39:21;;;;;;;6.87;4.83;;;;;;;-4.53;100.00;96028.19;5112672;28;20417;-82
2021/01/17 01:41:48;;;;;;;10.03;6.57;;;;;;;-4.63;100.00;96030.34;5115577;28;20430;-82
2021/01/17 01:44:14;;;;;;;9.43;4.87;;;;;;;-4.68;100.00;96038.25;5115426;28;20437;-82
2021/01/17 01:46:42;;;;;;;6.00;4.43;;;;;;;-4.66;100.00;96030.50;5115430;28;20524;-81
2021/01/17 01:49:12;;;;;;;5.47;3.73;;;;;;;-5.22;100.00;96027.06;5115408;28;20448;-81
2021/01/17 01:51:39;;;;;;;5.93;4.33;;;;;;;-5.20;100.00;96021.88;5115532;27;20532;-81
2021/01/17 01:54:08;;;;;;;6.40;4.83;;;;;;;-5.02;100.00;96015.91;5115241;28;20476;-81
2021/01/17 01:56:35;;;;;;;11.07;6.33;;;;;;;-4.84;100.00;96019.38;5115275;28;20524;-81
2021/01/17 01:59:05;;;;;;;6.10;5.00;;;;;;;-5.33;100.00;96019.88;5115549;28;20441;-82
2021/01/17 02:01:32;;;;;;;7.60;5.47;;;;;;;-5.13;100.00;96018.13;5115071;28;20532;-81
2021/01/17 02:03:59;;;;;;;7.23;5.13;;;;;;;-4.91;100.00;96021.38;5115186;28;20433;-81
2021/01/17 02:06:28;;;;;;;7.37;4.67;;;;;;;-4.88;100.00;96022.97;5114914;28;20450;-81
2021/01/17 02:09:21;;;;;;;7.60;4.90;;;;;;;-4.83;100.00;96026.16;5114964;28;20447;-81
2021/01/17 02:11:59;;;;;;;4.73;4.17;;;;;;;-4.73;100.00;96024.00;5114648;28;21001;-81
2021/01/17 02:14:47;;;;;;;4.67;4.00;;;;;;;-4.96;100.00;96025.03;5114857;28;20465;-81
2021/01/17 02:17:18;;;;;;;5.43;4.33;;;;;;;-4.98;100.00;96029.44;5114759;28;20429;-81
2021/01/17 02:20:06;;;;;;;6.57;4.90;;;;;;;-4.89;100.00;96034.94;5114908;27;20437;-81
2021/01/17 02:22:39;;;;;;;5.70;4.57;;;;;;;-4.95;100.00;96031.81;5114536;27;20448;-81
2021/01/17 02:25:08;;;;;;;5.37;3.93;;;;;;;-5.09;100.00;96028.19;5114717;28;20433;-81
2021/01/17 02:27:36;;;;;;;6.07;3.80;;;;;;;-4.93;100.00;96032.59;5114460;28;20445;-81
2021/01/17 02:30:07;;;;;;;4.73;3.77;;;;;;;-4.89;100.00;96031.56;5114767;28;20524;-82
2021/01/17 02:32:37;;;;;;;11.57;7.63;;;;;;;-4.92;100.00;96035.06;5114401;28;20490;-81
2021/01/17 02:35:05;;;;;;;9.80;6.77;;;;;;;-5.20;100.00;96030.38;5114595;28;20501;-81
2021/01/17 02:37:39;;;;;;;6.87;4.93;;;;;;;-5.30;100.00;96037.66;5114310;28;20434;-81
2021/01/17 02:40:14;;;;;;;8.07;4.43;;;;;;;-5.39;100.00;96027.00;5114273;28;20429;-82
2021/01/17 02:42:41;;;;;;;9.53;6.23;;;;;;;-5.29;100.00;96035.94;5114213;28;20433;-82
2021/01/17 02:45:09;;;;;;;8.17;6.00;;;;;;;-4.75;100.00;96039.44;5114675;28;20540;-81
2021/01/17 02:47:36;;;;;;;5.57;4.97;;;;;;;-4.88;100.00;96046.06;5114393;28;20826;-81
2021/01/17 02:50:04;;;;;;;6.67;4.57;;;;;;;-5.05;100.00;96046.81;5114621;28;20441;-81
2021/01/17 02:52:39;;;;;;;6.17;4.30;;;;;;;-4.92;100.00;96047.06;5113058;28;20524;-81
2021/01/17 02:55:08;;;;;;;8.83;5.20;;;;;;;-5.03;100.00;96043.25;5113937;28;20567;-81
2021/01/17 02:57:40;;;;;;;7.13;3.77;;;;;;;-5.12;100.00;96043.69;5113829;28;20445;-81
2021/01/17 03:00:10;;;;;;;6.00;4.60;;;;;;;-5.09;100.00;96042.69;5114460;28;20429;-82
2021/01/17 03:02:43;;;;;;;5.67;4.90;;;;;;;-5.11;100.00;96035.09;5113574;28;20531;-81
2021/01/17 03:05:14;;;;;;;6.20;4.70;;;;;;;-5.03;100.00;96040.69;5114015;28;20425;-81
2021/01/17 03:07:48;;;;;;;5.73;3.90;;;;;;;-5.05;100.00;96047.63;5113743;27;20426;-81
2021/01/17 03:10:17;;;;;;;6.77;4.77;;;;;;;-5.02;100.00;96041.56;5114178;28;20455;-81
2021/01/17 03:12:44;;;;;;;5.70;4.93;;;;;;;-5.07;100.00;96043.47;5113424;28;20938;-81
2021/01/17 03:15:12;;;;;;;8.03;4.63;;;;;;;-4.91;100.00;96048.75;5113656;28;20508;-81
2021/01/17 03:17:39;;;;;;;12.83;6.90;;;;;;;-4.93;100.00;96050.53;5113532;27;21018;-81
2021/01/17 03:20:07;;;;;;;20.93;11.93;;;;;;;-4.93;100.00;96048.81;5113978;28;20513;-81
2021/01/17 03:22:34;;;;;;;12.30;7.23;;;;;;;-4.96;100.00;96048.94;5113444;28;20442;-81
2021/01/17 03:25:01;;;;;;;15.00;8.90;;;;;;;-4.86;100.00;96037.38;5113864;27;20448;-81
2021/01/17 03:27:29;;;;;;;18.80;11.30;;;;;;;-4.89;100.00;96045.19;5113320;28;20456;-81
2021/01/17 03:29:56;;;;;;;16.23;10.33;;;;;;;-4.95;100.00;96039.50;5113991;28;20437;-81
2021/01/17 03:32:22;;;;;;;21.23;14.27;;;;;;;-4.73;100.00;96040.19;5113503;28;20445;-81
2021/01/17 03:34:49;;;;;;;32.77;20.00;;;;;;;-4.84;100.00;96043.25;5113416;28;20527;-81
2021/01/17 03:37:17;;;;;;;16.90;11.90;;;;;;;-5.06;100.00;96038.31;5113073;28;20437;-81
2021/01/17 03:39:44;;;;;;;8.77;6.97;;;;;;;-5.17;100.00;96037.09;5113629;28;20483;-81
2021/01/17 03:42:11;;;;;;;6.50;5.27;;;;;;;-5.13;100.00;96039.44;5113137;28;20445;-81
2021/01/17 03:44:40;;;;;;;6.87;5.10;;;;;;;-4.91;100.00;96033.38;5113487;27;20436;-81
2021/01/17 03:47:08;;;;;;;21.60;12.70;;;;;;;-4.86;100.00;96042.50;5113022;28;20471;-82
2021/01/17 03:49:35;;;;;;;11.43;7.10;;;;;;;-4.95;100.00;96036.94;5112963;28;20453;-81
2021/01/17 03:52:02;;;;;;;6.37;4.43;;;;;;;-4.74;100.00;96030.84;5112941;28;20437;-81
2021/01/17 03:54:28;;;;;;;6.00;3.77;;;;;;;-4.55;100.00;96031.63;5112697;28;20484;-82
2021/01/17 03:56:55;;;;;;;6.20;3.97;;;;;;;-4.53;100.00;96031.56;5112865;28;20508;-82
2021/01/17 03:59:22;;;;;;;4.37;3.97;;;;;;;-4.51;100.00;96045.16;5112960;28;20973;-82
2021/01/17 04:01:51;;;;;;;34.70;18.33;;;;;;;-4.64;100.00;96044.91;5112333;28;20452;-82
2021/01/17 04:04:17;;;;;;;159.47;78.87;;;;;;;-4.82;100.00;96046.56;5113090;28;20492;-81
2021/01/17 04:06:44;;;;;;;49.87;27.27;;;;;;;-4.74;100.00;96048.81;5112591;28;20434;-82
2021/01/17 04:09:11;;;;;;;75.50;40.77;;;;;;;-4.68;100.00;96045.94;5112773;28;20434;-81
2021/01/17 04:11:38;;;;;;;93.47;56.90;;;;;;;-4.85;100.00;96056.13;5112435;28;20473;-82
2021/01/17 04:14:05;;;;;;;54.83;34.00;;;;;;;-4.89;100.00;96052.88;5112895;28;20441;-81
2021/01/17 04:16:32;;;;;;;45.60;24.27;;;;;;;-4.76;100.00;96055.72;5112965;28;20461;-82
2021/01/17 04:19:00;;;;;;;14.87;7.57;;;;;;;-4.94;100.00;96056.56;5112898;28;20445;-82
2021/01/17 04:21:27;;;;;;;9.17;6.70;;;;;;;-4.93;100.00;96058.22;5112418;28;20451;-82
2021/01/17 04:23:54;;;;;;;8.13;6.10;;;;;;;-4.91;100.00;96051.31;5112298;28;20476;-81
2021/01/17 04:26:21;;;;;;;12.67;9.20;;;;;;;-4.90;100.00;96056.34;5112345;28;20484;-82
2021/01/17 04:28:47;;;;;;;20.00;14.83;;;;;;;-4.79;100.00;96061.81;5112471;28;20532;-81
2021/01/17 04:31:14;;;;;;;168.23;63.50;;;;;;;-4.76;100.00;96057.47;5112617;28;20476;-81
2021/01/17 04:33:41;;;;;;;117.30;49.03;;;;;;;-4.82;100.00;96050.88;5112115;28;20468;-81
2021/01/17 04:36:11;;;;;;;27.10;15.87;;;;;;;-4.86;100.00;96054.47;5112735;28;20508;-81
2021/01/17 04:38:38;;;;;;;58.17;27.70;;;;;;;-4.85;100.00;96053.56;5112300;28;20429;-81
2021/01/17 04:41:06;;;;;;;30.07;16.03;;;;;;;-4.95;100.00;96047.19;5112300;28;20445;-82
2021/01/17 04:43:35;;;;;;;7.37;5.00;;;;;;;-5.07;100.00;96056.28;5112303;28;20501;-82
2021/01/17 04:46:04;;;;;;;16.90;9.47;;;;;;;-5.07;100.00;96058.84;5112660;28;20514;-81
2021/01/17 04:48:31;;;;;;;29.37;17.73;;;;;;;-5.01;100.00;96058.59;5112255;28;20953;-82
2021/01/17 04:51:02;;;;;;;9.77;5.57;;;;;;;-5.00;100.00;96062.81;5112214;28;20438;-81
2021/01/17 04:53:32;;;;;;;6.13;4.00;;;;;;;-4.81;100.00;96060.25;5112280;28;20809;-82
2021/01/17 04:56:12;;;;;;;10.30;6.13;;;;;;;-5.51;100.00;96059.06;5111887;28;20509;-81
2021/01/17 04:58:44;;;;;;;8.90;6.77;;;;;;;-5.72;100.00;96065.94;5112496;28;20438;-82
2021/01/17 05:01:23;;;;;;;12.53;7.27;;;;;;;-5.82;100.00;96064.66;5112208;28;20425;-81
2021/01/17 05:03:57;;;;;;;10.30;6.50;;;;;;;-5.84;100.00;96067.31;5112264;28;20425;-81
2021/01/17 05:06:28;;;;;;;7.00;5.30;;;;;;;-5.39;100.00;96065.41;5112129;28;20461;-81
2021/01/17 05:09:05;;;;;;;5.97;4.73;;;;;;;-5.18;100.00;96064.47;5112512;28;20429;-81
2021/01/17 05:11:38;;;;;;;5.97;4.97;;;;;;;-5.30;100.00;96068.41;5112197;28;20961;-81
2021/01/17 05:14:15;;;;;;;8.13;5.67;;;;;;;-5.20;100.00;96071.38;5112816;28;20449;-82
2021/01/17 05:16:44;;;;;;;7.80;5.87;;;;;;;-5.20;100.00;96076.50;5115752;28;20429;-81
2021/01/17 05:19:13;;;;;;;8.90;5.73;;;;;;;-5.20;100.00;96081.63;5116332;27;20964;-82
2021/01/17 05:21:45;;;;;;;8.73;6.53;;;;;;;-5.14;100.00;96083.91;5115851;27;20824;-81
2021/01/17 05:24:14;;;;;;;10.33;7.13;;;;;;;-5.06;100.00;96088.69;5116063;28;20505;-82
2021/01/17 05:26:51;;;;;;;7.60;5.40;;;;;;;-5.13;100.00;96089.88;5115751;28;20531;-81
2021/01/17 05:29:19;;;;;;;7.50;4.63;;;;;;;-5.30;100.00;96091.47;5115835;28;20478;-81
2021/01/17 05:31:50;;;;;;;6.93;5.50;;;;;;;-5.26;100.00;96080.19;5115514;28;20509;-81
2021/01/17 05:34:19;;;;;;;8.23;6.07;;;;;;;-5.17;100.00;96081.50;5115437;28;20433;-82
2021/01/17 05:36:46;;;;;;;9.00;6.03;;;;;;;-5.14;100.00;96083.91;5115535;28;20967;-81
2021/01/17 05:39:14;;;;;;;8.67;5.53;;;;;;;-4.91;100.00;96082.91;5115710;28;20441;-81
2021/01/17 05:41:40;;;;;;;8.90;5.60;;;;;;;-4.84;100.00;96086.84;5115427;28;20451;-81
2021/01/17 05:44:07;;;;;;;7.03;4.40;;;;;;;-4.94;100.00;96082.22;5115457;28;20891;-81
2021/01/17 05:46:34;;;;;;;6.60;4.07;;;;;;;-4.93;100.00;96083.88;5115334;28;20425;-81
2021/01/17 05:49:11;;;;;;;7.27;5.20;;;;;;;-4.92;100.00;96083.78;5115480;28;20481;-81
2021/01/17 05:51:38;;;;;;;46.53;33.40;;;;;;;-5.12;100.00;96087.25;5115219;28;20476;-83
2021/01/17 05:54:09;;;;;;;29.47;22.43;;;;;;;-4.98;100.00;96090.94;5114765;28;20546;-81
2021/01/17 05:56:38;;;;;;;66.20;38.80;;;;;;;-4.90;100.00;96091.41;5115114;28;20429;-81
2021/01/17 05:59:05;;;;;;;29.33;22.10;;;;;;;-4.84;100.00;96096.28;5109032;28;20456;-81
2021/01/17 06:01:34;;;;;;;13.87;11.90;;;;;;;-4.88;100.00;96093.00;5112246;28;20512;-81
2021/01/17 06:04:11;;;;;;;12.93;11.13;;;;;;;-4.72;100.00;96098.25;5111945;28;20449;-81
2021/01/17 06:06:38;;;;;;;9.00;7.30;;;;;;;-4.92;100.00;96093.19;5112598;28;20459;-82
2021/01/17 06:09:05;;;;;;;13.73;9.53;;;;;;;-4.96;100.00;96101.94;5112790;28;20437;-81
2021/01/17 06:11:32;;;;;;;10.47;8.57;;;;;;;-4.88;100.00;96102.44;5112340;27;20465;-81
2021/01/17 06:14:02;;;;;;;17.63;8.40;;;;;;;-4.81;100.00;96096.13;5112571;28;20532;-81
2021/01/17 06:16:33;;;;;;;9.73;8.40;;;;;;;-4.88;100.00;96103.28;5111573;28;21042;-82
2021/01/17 06:19:01;;;;;;;8.33;6.23;;;;;;;-4.82;100.00;96099.59;5112754;28;20437;-81
2021/01/17 06:21:30;;;;;;;12.77;8.97;;;;;;;-4.90;100.00;96114.47;5112532;28;21007;-82
2021/01/17 06:23:59;;;;;;;9.80;6.37;;;;;;;-4.89;100.00;96114.41;5113042;28;20506;-81
2021/01/17 06:26:28;;;;;;;11.70;10.37;;;;;;;-5.04;100.00;96123.63;5111930;28;20433;-81
2021/01/17 06:28:55;;;;;;;10.03;8.17;;;;;;;-4.69;100.00;96118.66;5111477;28;20454;-81
2021/01/17 06:31:27;;;;;;;11.10;7.70;;;;;;;-4.85;100.00;96125.34;5112502;28;20509;-81
2021/01/17 06:34:03;;;;;;;19.33;12.00;;;;;;;-4.87;100.00;96117.75;5112805;28;20516;-81
2021/01/17 06:36:31;;;;;;;13.13;10.27;;;;;;;-4.92;100.00;96118.84;5112123;28;20422;-80
2021/01/17 06:38:58;;;;;;;10.40;7.57;;;;;;;-5.02;100.00;96123.56;5111923;28;20445;-81
2021/01/17 06:41:37;;;;;;;21.03;12.97;;;;;;;-4.76;100.00;96119.00;5110996;28;20486;-81
2021/01/17 06:44:09;;;;;;;23.07;14.67;;;;;;;-4.71;100.00;96122.16;5112243;28;20437;-82
2021/01/17 06:46:42;;;;;;;10.27;8.40;;;;;;;-4.72;100.00;96116.22;5111871;28;20493;-81
2021/01/17 06:49:19;;;;;;;12.23;6.93;;;;;;;-4.60;100.00;96122.53;5111689;28;20472;-81
2021/01/17 06:51:46;;;;;;;21.17;11.73;;;;;;;-4.55;100.00;96134.22;5111001;28;20436;-82
2021/01/17 06:54:16;;;;;;;18.23;9.73;;;;;;;-4.53;100.00;96134.19;5111644;28;20437;-82
2021/01/17 06:56:45;;;;;;;11.43;7.80;;;;;;;-4.53;100.00;96130.78;5112164;28;20801;-83
2021/01/17 06:59:12;;;;;;;16.50;11.83;;;;;;;-4.41;100.00;96128.47;5111622;28;20960;-82
2021/01/17 07:01:43;;;;;;;15.00;10.40;;;;;;;-4.40;100.00;96139.56;5110982;28;20488;-81
2021/01/17 07:04:38;;;;;;;19.73;14.83;;;;;;;-4.45;100.00;96141.50;5111553;28;20913;-82
2021/01/17 07:07:41;;;;;;;15.10;11.53;;;;;;;-4.40;100.00;96142.97;5111427;28;20965;-82
2021/01/17 07:10:09;;;;;;;10.13;8.70;;;;;;;-4.30;100.00;96138.22;5110776;28;20421;-83
2021/01/17 07:12:46;;;;;;;9.20;8.17;;;;;;;-4.35;100.00;96143.59;5111365;28;20449;-82
2021/01/17 07:15:14;;;;;;;9.93;8.67;;;;;;;-4.40;100.00;96145.53;5111785;28;20468;-81
2021/01/17 07:17:43;;;;;;;8.73;7.60;;;;;;;-4.30;100.00;96141.63;5111245;28;20478;-81
2021/01/17 07:20:12;;;;;;;14.83;8.13;;;;;;;-4.34;100.00;96145.22;5111216;28;20445;-82
2021/01/17 07:22:42;;;;;;;6.67;5.60;;;;;;;-4.30;100.00;96148.50;5110356;28;20528;-82
2021/01/17 07:25:12;;;;;;;13.00;6.67;;;;;;;-4.15;100.00;96155.50;5111684;28;20550;-82
2021/01/17 07:28:07;;;;;;;13.47;9.07;;;;;;;-3.94;100.00;96152.81;5111185;28;20448;-81
2021/01/17 07:30:50;;;;;;;8.37;7.03;;;;;;;-4.02;100.00;96157.47;5111270;28;20521;-81
2021/01/17 07:33:24;;;;;;;7.53;5.90;;;;;;;-4.00;100.00;96158.22;5109464;28;20463;-82
2021/01/17 07:35:51;;;;;;;13.57;8.33;;;;;;;-3.77;100.00;96163.09;5111144;28;20500;-81
2021/01/17 07:38:20;;;;;;;11.33;9.60;;;;;;;-3.47;100.00;96157.38;5110485;28;20471;-81
2021/01/17 07:40:55;;;;;;;10.53;6.87;;;;;;;-3.71;100.00;96157.66;5110467;28;20528;-81
2021/01/17 07:43:25;;;;;;;12.30;7.87;;;;;;;-3.73;100.00;96158.66;5110114;28;20413;-81
2021/01/17 07:45:53;;;;;;;5.00;4.50;;;;;;;-3.73;100.00;96158.66;5110848;28;20429;-81
2021/01/17 07:48:21;;;;;;;6.63;5.37;;;;;;;-3.90;100.00;96159.47;5110453;28;20488;-81
2021/01/17 07:50:50;;;;;;;10.07;6.47;;;;;;;-3.45;100.00;96163.28;5110632;28;20452;-81
2021/01/17 07:53:43;;;;;;;6.67;5.03;;;;;;;-3.35;100.00;96159.34;5110177;28;20441;-81
2021/01/17 07:56:11;;;;;;;7.70;5.20;;;;;;;-3.42;100.00;96163.13;5110580;28;20485;-81
2021/01/17 07:58:42;;;;;;;5.53;5.03;;;;;;;-3.05;100.00;96159.50;5110805;27;20437;-83
2021/01/17 08:01:47;;;;;;;10.87;6.27;;;;;;;-2.79;100.00;96159.91;5111012;28;20430;-82
2021/01/17 08:04:47;;;;;;;7.57;5.43;;;;;;;-3.07;100.00;96163.91;5090404;27;20481;-83
2021/01/17 08:07:30;;;;;;;7.03;4.70;;;;;;;-3.29;100.00;96164.19;5098862;27;20544;-81
2021/01/17 08:09:57;;;;;;;6.97;5.30;;;;;;;-3.24;100.00;96166.50;5110112;28;20461;-83
2021/01/17 08:12:38;;;;;;;7.30;5.47;;;;;;;-2.93;100.00;96158.88;5110588;28;20485;-82
2021/01/17 08:15:16;;;;;;;8.67;6.10;;;;;;;-2.97;100.00;96165.09;5110550;28;20901;-82
2021/01/17 08:17:44;;;;;;;8.90;5.60;;;;;;;-2.84;100.00;96165.31;5110142;28;20437;-81
2021/01/17 08:20:21;;;;;;;8.63;6.40;;;;;;;-2.53;100.00;96166.25;5110344;27;20441;-81
2021/01/17 08:22:48;;;;;;;12.67;7.87;;;;;;;-2.87;100.00;96168.03;5110221;28;20948;-82
2021/01/17 08:25:17;;;;;;;9.50;6.97;;;;;;;-2.70;100.00;96178.28;5109999;28;20473;-81
2021/01/17 08:27:45;;;;;;;6.63;5.07;;;;;;;-3.01;100.00;96173.91;5110059;28;20528;-82
2021/01/17 08:30:20;;;;;;;7.37;5.90;;;;;;;-2.92;100.00;96180.28;5110034;28;20477;-81
2021/01/17 08:32:49;;;;;;;13.57;9.37;;;;;;;-2.67;100.00;96182.41;5109784;28;20214;-81
2021/01/17 08:35:36;;;;;;;17.80;11.30;;;;;;;-3.19;100.00;96167.91;5109955;28;20227;-81
2021/01/17 08:38:20;;;;;;;9.70;5.47;;;;;;;-3.24;100.00;96180.19;5110156;28;20484;-81
2021/01/17 08:40:49;;;;;;;18.90;13.60;;;;;;;-3.42;100.00;96173.41;5109944;28;20195;-81
2021/01/17 08:43:17;;;;;;;7.47;5.30;;;;;;;-3.65;100.00;96172.78;5109405;28;20280;-82
2021/01/17 08:45:46;;;;;;;7.97;4.03;;;;;;;-3.76;100.00;96175.03;5110222;28;20542;-82
2021/01/17 08:48:30;;;;;;;7.40;4.63;;;;;;;-3.12;100.00;96171.00;5110260;28;20447;-82
2021/01/17 08:51:19;;;;;;;7.17;5.47;;;;;;;-2.87;100.00;96170.63;5113468;28;20528;-81
2021/01/17 08:53:46;;;;;;;8.70;5.73;;;;;;;-2.61;100.00;96168.41;5114317;28;20445;-82
2021/01/17 08:56:21;;;;;;;35.47;7.73;;;;;;;-2.45;100.00;96167.53;5114022;28;20524;-81
2021/01/17 08:58:50;;;;;;;39.10;10.40;;;;;;;-2.36;100.00;96173.09;5114275;28;20260;-81
2021/01/17 09:01:17;;;;;;;6.07;5.47;;;;;;;-2.64;100.00;96165.06;5113753;28;20199;-82
2021/01/17 09:03:57;;;;;;;6.57;5.20;;;;;;;-2.84;100.00;96162.75;5113397;28;20524;-83
2021/01/17 09:06:28;;;;;;;6.23;5.57;;;;;;;-2.69;100.00;96161.94;5114282;28;20527;-82
2021/01/17 09:09:06;;;;;;;6.17;4.47;;;;;;;-2.58;100.00;96160.53;5114616;28;20210;-83
2021/01/17 09:11:37;;;;;;;7.67;5.43;;;;;;;-2.13;100.00;96159.81;5114010;28;20959;-82
2021/01/17 09:14:22;;;;;;;5.20;4.70;;;;;;;-2.09;100.00;96163.88;5113298;28;20486;-82
2021/01/17 09:16:52;;;;;;;7.17;4.73;;;;;;;-2.34;100.00;96161.81;5113857;28;20437;-81
2021/01/17 09:19:20;;;;;;;4.93;4.37;;;;;;;-2.41;100.00;96157.91;5114213;28;20228;-81
2021/01/17 09:21:52;;;;;;;8.90;5.73;;;;;;;-2.49;100.00;96155.75;5113400;28;20226;-82
2021/01/17 09:24:20;;;;;;;7.30;5.43;;;;;;;-2.67;100.00;96157.56;5113287;28;21008;-82
2021/01/17 09:26:49;;;;;;;6.83;5.60;;;;;;;-2.79;100.00;96153.03;5113573;28;20200;-82
2021/01/17 09:29:34;;;;;;;11.67;6.70;;;;;;;-2.91;100.00;96146.81;5114149;28;20237;-82
2021/01/17 09:32:06;;;;;;;6.97;5.43;;;;;;;-3.13;100.00;96141.09;5113287;27;20274;-82
2021/01/17 09:34:35;;;;;;;7.80;5.03;;;;;;;-3.32;100.00;96141.19;5113436;28;20241;-81
2021/01/17 09:37:07;;;;;;;6.53;5.30;;;;;;;-3.30;100.00;96149.63;5113340;28;20736;-82
2021/01/17 09:39:37;;;;;;;8.27;5.67;;;;;;;-3.06;100.00;96149.31;5113715;28;20219;-82
2021/01/17 09:42:06;;;;;;;7.63;5.40;;;;;;;-2.89;100.00;96152.69;5113009;28;20191;-82
2021/01/17 09:44:34;;;;;;;8.90;7.13;;;;;;;-2.88;100.00;96145.78;5113652;28;20240;-82
2021/01/17 09:47:01;;;;;;;6.40;4.73;;;;;;;-2.87;100.00;96150.03;5112566;28;20198;-82
2021/01/17 09:49:30;;;;;;;6.33;4.93;;;;;;;-2.89;100.00;96139.81;5113232;28;20281;-83
2021/01/17 09:52:01;;;;;;;5.60;4.90;;;;;;;-2.78;100.00;96146.97;5113520;28;20192;-83
2021/01/17 09:54:29;;;;;;;9.40;5.97;;;;;;;-2.89;100.00;96147.53;5113241;28;20710;-83
2021/01/17 09:56:55;;;;;;;5.93;4.37;;;;;;;-2.79;100.00;96142.75;5112793;28;20638;-83
2021/01/17 09:59:26;;;;;;;6.23;5.07;;;;;;;-2.92;100.00;96136.56;5112607;28;20207;-82
2021/01/17 10:01:54;;;;;;;5.93;5.00;;;;;;;-2.90;100.00;96132.19;5111873;28;20198;-82
2021/01/17 10:04:26;;;;;;;6.43;5.33;;;;;;;-2.95;100.00;96131.59;5094554;28;20664;-81
2021/01/17 10:06:54;;;;;;;7.97;5.23;;;;;;;-3.03;100.00;96126.84;5112477;28;20200;-82
2021/01/17 10:09:22;;;;;;;6.40;5.30;;;;;;;-3.29;100.00;96133.34;5112791;28;20199;-81
2021/01/17 10:12:01;;;;;;;7.33;4.90;;;;;;;-3.23;100.00;96135.56;5112181;28;20231;-82
2021/01/17 10:14:30;;;;;;;9.43;5.80;;;;;;;-2.94;100.00;96125.56;5112709;28;20909;-81
2021/01/17 10:16:58;;;;;;;6.83;5.37;;;;;;;-2.84;100.00;96124.16;5113033;28;20222;-82
2021/01/17 10:19:27;;;;;;;6.80;5.93;;;;;;;-2.68;100.00;96130.13;5113141;28;20647;-81
2021/01/17 10:21:55;;;;;;;6.20;5.50;;;;;;;-2.74;100.00;96120.16;5112235;28;20445;-81
2021/01/17 10:24:23;;;;;;;8.80;6.53;;;;;;;-3.04;100.00;96124.38;5111869;28;20252;-81
2021/01/17 10:26:52;;;;;;;7.03;6.07;;;;;;;-2.89;100.00;96121.81;5112723;28;20231;-80
2021/01/17 10:29:26;;;;;;;13.30;8.03;;;;;;;-2.67;100.00;96118.97;5092431;28;20223;-82
2021/01/17 10:32:00;;;;;;;16.67;10.37;;;;;;;-1.76;100.00;96112.22;5092161;28;20184;-81
2021/01/17 10:34:30;;;;;;;18.47;10.90;;;;;;;-1.62;100.00;96110.63;5108175;28;20247;-82
2021/01/17 10:36:59;;;;;;;8.77;5.60;;;;;;;-0.93;100.00;96109.16;5112449;28;20655;-83
2021/01/17 10:39:26;;;;;;;9.53;6.97;;;;;;;-1.34;100.00;96112.41;5112640;28;20678;-84
2021/01/17 10:42:08;;;;;;;12.10;6.83;;;;;;;-0.76;100.00;96108.94;5112136;28;20196;-83
2021/01/17 10:44:46;;;;;;;7.93;5.53;;;;;;;-1.45;100.00;96107.91;5112588;28;20183;-83
2021/01/17 10:47:31;;;;;;;7.90;5.77;;;;;;;-0.68;100.00;96109.31;5111378;28;20266;-81
2021/01/17 10:50:02;;;;;;;7.07;4.70;;;;;;;-0.87;100.00;96104.41;5112337;28;20219;-81
2021/01/17 10:52:34;;;;;;;6.60;4.70;;;;;;;-1.69;100.00;96113.53;5111867;28;20190;-81
2021/01/17 10:55:05;;;;;;;7.30;4.57;;;;;;;-1.81;100.00;96114.22;5111879;28;20303;-81
2021/01/17 10:57:36;;;;;;;11.43;5.63;;;;;;;-1.68;100.00;96112.63;5111338;28;20270;-81
2021/01/17 11:00:07;;;;;;;6.73;4.97;;;;;;;-2.52;100.00;96119.03;5112078;28;20217;-82
2021/01/17 11:02:34;;;;;;;5.90;5.10;;;;;;;-2.19;100.00;96116.38;5111692;28;20222;-81
2021/01/17 11:05:02;;;;;;;6.10;5.50;;;;;;;-2.53;100.00;96118.22;5112045;28;20575;-80
2021/01/17 11:07:29;;;;;;;10.23;5.80;;;;;;;-2.61;100.00;96114.38;5111350;28;20192;-80
2021/01/17 11:09:57;;;;;;;5.50;4.00;;;;;;;-2.82;100.00;96112.03;5110948;28;20206;-80
2021/01/17 11:12:37;;;;;;;6.20;4.40;;;;;;;-2.66;100.00;96102.59;5110766;28;20191;-81
2021/01/17 11:15:16;;;;;;;7.83;4.93;;;;;;;-2.89;100.00;96108.13;5111393;28;20214;-80
2021/01/17 11:17:51;;;;;;;5.40;4.50;;;;;;;-3.01;100.00;96101.03;5111089;28;20183;-81
2021/01/17 11:20:24;;;;;;;5.27;4.10;;;;;;;-2.99;100.00;96109.53;5111298;28;20436;-81
2021/01/17 11:22:52;;;;;;;5.83;4.93;;;;;;;-2.47;100.00;96112.72;5111942;28;20188;-81
2021/01/17 11:25:19;;;;;;;6.13;4.77;;;;;;;-2.83;100.00;96115.53;5111104;28;20528;-80
2021/01/17 11:27:47;;;;;;;9.00;6.27;;;;;;;-2.59;100.00;96113.41;5111043;27;20282;-80
2021/01/17 11:30:17;;;;;;;6.17;4.67;;;;;;;-2.55;100.00;96111.50;5110965;28;20203;-80
2021/01/17 11:32:44;;;;;;;6.87;5.50;;;;;;;-2.50;100.00;96107.75;5111394;28;20451;-81
2021/01/17 11:35:26;;;;;;;6.40;4.70;;;;;;;-2.57;100.00;96110.72;5111302;27;20223;-81
2021/01/17 11:37:53;;;;;;;4.40;3.60;;;;;;;-2.58;100.00;96112.47;5109095;28;20585;-80